Time;durP1;ratioP1;P1;durP2;ratioP2;P2;SDS_P1;SDS_P2;PMS_P1;PMS_P2;Temp;Humidity;BMP_temperature;BMP_pressure;BME280_temperature;BME280_humidity;BME280_pressure;Samples;Min_cycle;Max_cycle;Signal;HPM_P1;HPM_P2
2022/10/16 00:01:13;;;;;;;5.57;2.00;;;;;;;13.63;100.00;96209.84;5065030;28;20028;-77
2022/10/16 00:03:40;;;;;;;3.50;1.25;;;;;;;13.64;100.00;96216.75;5059870;28;20039;-77
2022/10/16 00:06:07;;;;;;;4.50;2.05;;;;;;;13.63;100.00;96213.28;5063380;28;20195;-77
2022/10/16 00:08:34;;;;;;;9.45;1.80;;;;;;;13.57;100.00;96207.91;5048150;28;20111;-77
2022/10/16 00:11:14;;;;;;;2.63;1.42;;;;;;;13.56;100.00;96203.63;5065513;28;20037;-77
2022/10/16 00:13:42;;;;;;;3.85;1.40;;;;;;;13.56;100.00;96208.91;5060549;28;20104;-77
2022/10/16 00:16:09;;;;;;;4.28;1.65;;;;;;;13.53;100.00;96201.34;5064887;28;20484;-77
2022/10/16 00:18:36;;;;;;;2.95;1.30;;;;;;;13.53;100.00;96204.78;5063066;28;20040;-77
2022/10/16 00:21:04;;;;;;;3.33;1.42;;;;;;;13.49;100.00;96206.16;5058584;28;20122;-76
2022/10/16 00:23:31;;;;;;;2.78;1.42;;;;;;;13.58;100.00;96204.25;5086086;28;20036;-78
2022/10/16 00:25:59;;;;;;;4.70;1.60;;;;;;;13.55;100.00;96207.28;5062642;28;20024;-77
2022/10/16 00:28:25;;;;;;;3.55;1.40;;;;;;;13.53;100.00;96210.09;5065281;28;20106;-78
2022/10/16 00:30:51;;;;;;;6.70;1.95;;;;;;;13.50;100.00;96215.72;5066574;28;20114;-77
2022/10/16 00:33:16;;;;;;;9.15;1.65;;;;;;;13.49;100.00;96215.91;5067976;28;20032;-78
2022/10/16 00:35:43;;;;;;;4.47;1.38;;;;;;;13.51;100.00;96222.63;5064747;28;20123;-77
2022/10/16 00:38:09;;;;;;;7.63;1.60;;;;;;;13.52;100.00;96223.47;5050214;28;20487;-77
2022/10/16 00:40:34;;;;;;;4.15;1.50;;;;;;;13.52;100.00;96228.75;5048194;28;20029;-76
2022/10/16 00:43:00;;;;;;;3.05;1.17;;;;;;;13.52;100.00;96226.13;5061993;28;20017;-78
2022/10/16 00:45:26;;;;;;;6.40;1.67;;;;;;;13.49;100.00;96223.84;5066430;28;20027;-76
2022/10/16 00:47:53;;;;;;;5.20;1.60;;;;;;;13.46;100.00;96217.06;5048683;28;20020;-75
2022/10/16 00:50:32;;;;;;;2.25;1.45;;;;;;;13.44;100.00;96219.88;5063936;28;20111;-76
2022/10/16 00:53:00;;;;;;;3.80;1.40;;;;;;;13.50;100.00;96218.34;5065027;28;20040;-76
2022/10/16 00:55:28;;;;;;;7.57;1.95;;;;;;;13.52;100.00;96226.13;5048874;28;20112;-76
2022/10/16 00:57:54;;;;;;;4.72;1.52;;;;;;;13.46;100.00;96219.72;5061996;28;20045;-76
2022/10/16 01:00:23;;;;;;;4.13;1.30;;;;;;;13.53;100.00;96214.53;5061781;28;20033;-76
2022/10/16 01:02:56;;;;;;;3.15;1.25;;;;;;;13.53;100.00;96217.19;5063237;28;20123;-76
2022/10/16 01:05:27;;;;;;;1.70;1.10;;;;;;;13.49;100.00;96210.63;5079527;28;20040;-76
2022/10/16 01:08:15;;;;;;;2.90;1.15;;;;;;;13.48;100.00;96215.09;5065976;28;20570;-76
2022/10/16 01:10:55;;;;;;;4.35;1.40;;;;;;;13.51;100.00;96211.25;5068613;28;20039;-76
2022/10/16 01:13:24;;;;;;;3.15;1.40;;;;;;;13.58;100.00;96225.38;5063717;28;20039;-76
2022/10/16 01:15:58;;;;;;;4.05;1.30;;;;;;;13.61;100.00;96217.91;5063388;28;20503;-76
2022/10/16 01:18:37;;;;;;;2.70;1.20;;;;;;;13.69;100.00;96217.06;5060903;28;20128;-76
2022/10/16 01:21:03;;;;;;;3.00;0.98;;;;;;;13.69;100.00;96217.06;5063352;28;20108;-76
2022/10/16 01:24:02;;;;;;;3.47;1.00;;;;;;;13.71;100.00;96220.31;5062891;28;20056;-77
2022/10/16 01:26:54;;;;;;;3.38;1.13;;;;;;;13.68;100.00;96220.66;5064431;28;20482;-77
2022/10/16 01:29:29;;;;;;;2.47;1.20;;;;;;;13.63;100.00;96226.50;5044922;28;20098;-76
2022/10/16 01:32:03;;;;;;;3.00;1.00;;;;;;;13.64;100.00;96224.69;5064558;28;20048;-76
2022/10/16 01:34:37;;;;;;;3.55;1.45;;;;;;;13.63;100.00;96209.84;5059516;28;20028;-76
2022/10/16 01:37:11;;;;;;;4.22;1.25;;;;;;;13.58;100.00;96218.31;5059922;28;20040;-75
2022/10/16 01:39:40;;;;;;;2.58;1.10;;;;;;;13.55;100.00;96218.66;5045297;28;20055;-76
2022/10/16 01:42:16;;;;;;;4.55;1.25;;;;;;;13.54;100.00;96226.75;5058191;28;20043;-76
2022/10/16 01:44:45;;;;;;;4.10;1.02;;;;;;;13.53;100.00;96222.47;5060910;28;20053;-76
2022/10/16 01:47:14;;;;;;;5.10;0.90;;;;;;;13.50;100.00;96221.00;5061596;28;20056;-76
2022/10/16 01:49:41;;;;;;;2.17;0.90;;;;;;;13.51;100.00;96225.28;5061932;28;20032;-76
2022/10/16 01:52:14;;;;;;;3.90;0.90;;;;;;;13.45;100.00;96228.66;5054560;28;20024;-75
2022/10/16 01:54:43;;;;;;;3.95;1.10;;;;;;;13.42;100.00;96235.09;5045963;28;20340;-76
2022/10/16 01:57:12;;;;;;;1.40;0.82;;;;;;;13.40;100.00;96231.81;5066281;28;20082;-76
2022/10/16 01:59:44;;;;;;;3.10;0.88;;;;;;;13.35;100.00;96226.25;5064722;28;20720;-76
2022/10/16 02:02:12;;;;;;;2.83;0.85;;;;;;;13.38;100.00;96230.34;5067803;28;20048;-76
2022/10/16 02:04:46;;;;;;;1.85;0.77;;;;;;;13.32;100.00;96236.34;5069326;28;20040;-76
2022/10/16 02:07:13;;;;;;;1.73;1.00;;;;;;;13.28;100.00;96238.50;5070083;28;20032;-76
2022/10/16 02:09:39;;;;;;;2.65;0.88;;;;;;;13.25;100.00;96228.31;5069761;28;20040;-76
2022/10/16 02:12:14;;;;;;;2.83;1.15;;;;;;;13.23;100.00;96229.44;5065204;28;20044;-75
2022/10/16 02:14:40;;;;;;;5.63;0.82;;;;;;;13.23;100.00;96235.53;5067546;28;20063;-76
2022/10/16 02:17:15;;;;;;;3.45;1.23;;;;;;;13.26;100.00;96237.84;5052037;28;20028;-76
2022/10/16 02:19:41;;;;;;;3.70;1.90;;;;;;;13.32;100.00;96234.53;5049804;28;20032;-76
2022/10/16 02:22:15;;;;;;;2.25;1.00;;;;;;;13.33;100.00;96228.22;5057854;28;20017;-76
2022/10/16 02:24:55;;;;;;;1.50;0.90;;;;;;;13.35;100.00;96226.25;5052424;28;20107;-76
2022/10/16 02:27:41;;;;;;;2.90;0.98;;;;;;;13.32;100.00;96225.78;5050608;28;21157;-76
2022/10/16 02:30:09;;;;;;;4.07;1.00;;;;;;;13.27;100.00;96221.00;5066641;28;20564;-76
2022/10/16 02:32:39;;;;;;;2.65;1.20;;;;;;;13.30;100.00;96220.66;5051492;28;20032;-76
2022/10/16 02:35:07;;;;;;;1.75;1.10;;;;;;;13.33;100.00;96225.59;5065321;28;20024;-77
2022/10/16 02:37:33;;;;;;;2.25;1.00;;;;;;;13.35;100.00;96233.34;5066225;28;20028;-76
2022/10/16 02:39:59;;;;;;;3.95;1.10;;;;;;;13.31;100.00;96230.25;5050773;28;20056;-76
2022/10/16 02:42:36;;;;;;;2.75;0.80;;;;;;;13.30;100.00;96228.59;5065665;28;20044;-76
2022/10/16 02:45:03;;;;;;;2.00;1.08;;;;;;;13.29;100.00;96229.59;5049291;28;20032;-76
2022/10/16 02:47:29;;;;;;;2.70;1.02;;;;;;;13.27;100.00;96234.22;5069116;28;20395;-76
2022/10/16 02:49:54;;;;;;;3.92;0.80;;;;;;;13.23;100.00;96232.91;5068418;28;20047;-76
2022/10/16 02:52:20;;;;;;;4.05;1.00;;;;;;;13.22;100.00;96236.53;5066909;28;20111;-75
2022/10/16 02:54:46;;;;;;;6.07;1.20;;;;;;;13.23;100.00;96230.25;5050681;28;20554;-76
2022/10/16 02:57:12;;;;;;;7.10;1.63;;;;;;;13.24;100.00;96242.47;5060046;28;20029;-76
2022/10/16 02:59:37;;;;;;;6.72;1.65;;;;;;;13.23;100.00;96242.63;5067788;28;20107;-76
2022/10/16 03:02:03;;;;;;;6.10;1.42;;;;;;;13.24;100.00;96253.03;5067232;28;20017;-76
2022/10/16 03:04:29;;;;;;;3.83;1.38;;;;;;;13.26;100.00;96248.41;5049692;28;20377;-76
2022/10/16 03:06:55;;;;;;;3.67;1.30;;;;;;;13.29;100.00;96256.00;5060257;28;20036;-75
2022/10/16 03:09:20;;;;;;;4.88;1.35;;;;;;;13.32;100.00;96258.28;5065921;28;20090;-76
2022/10/16 03:11:46;;;;;;;5.82;1.10;;;;;;;13.36;100.00;96254.28;5064164;28;20545;-76
2022/10/16 03:14:12;;;;;;;3.60;1.15;;;;;;;13.39;100.00;96259.22;5066061;28;20498;-76
2022/10/16 03:16:37;;;;;;;3.15;1.13;;;;;;;13.38;100.00;96249.66;5058459;28;20418;-76
2022/10/16 03:19:03;;;;;;;3.45;1.15;;;;;;;13.42;100.00;96250.94;5064509;28;20070;-76
2022/10/16 03:21:29;;;;;;;3.17;1.23;;;;;;;13.49;100.00;96242.31;5070425;28;20033;-76
2022/10/16 03:23:55;;;;;;;1.73;1.00;;;;;;;13.51;100.00;96213.88;5071417;28;20178;-76
2022/10/16 03:26:20;;;;;;;4.63;1.13;;;;;;;13.58;100.00;96206.88;5067582;28;20550;-76
2022/10/16 03:28:46;;;;;;;2.28;1.00;;;;;;;13.53;100.00;96206.63;5065778;28;20048;-76
2022/10/16 03:31:12;;;;;;;1.42;0.82;;;;;;;13.49;100.00;96202.69;5043754;28;20024;-76
2022/10/16 03:33:38;;;;;;;2.90;1.13;;;;;;;13.41;100.00;96199.13;5067154;28;20085;-75
2022/10/16 03:36:04;;;;;;;6.35;1.90;;;;;;;13.37;100.00;96197.00;5062166;28;20099;-76
2022/10/16 03:38:29;;;;;;;3.22;1.65;;;;;;;13.36;100.00;96200.66;5062921;28;20119;-76
2022/10/16 03:40:55;;;;;;;3.85;1.50;;;;;;;13.33;100.00;96201.00;5066292;28;20093;-76
2022/10/16 03:43:21;;;;;;;6.93;1.70;;;;;;;13.28;100.00;96214.75;5066665;28;20127;-76
2022/10/16 03:45:46;;;;;;;3.47;1.40;;;;;;;13.28;100.00;96222.66;5047045;28;20039;-76
2022/10/16 03:48:12;;;;;;;3.28;2.08;;;;;;;13.25;100.00;96222.19;5048816;28;20024;-76
2022/10/16 03:50:38;;;;;;;4.07;1.75;;;;;;;13.24;100.00;96231.06;5066253;28;20494;-76
2022/10/16 03:53:04;;;;;;;4.72;2.17;;;;;;;13.17;100.00;96238.88;5062684;28;20040;-75
2022/10/16 03:55:29;;;;;;;3.95;1.90;;;;;;;13.17;100.00;96234.41;5079154;28;20086;-76
2022/10/16 03:57:55;;;;;;;6.32;2.00;;;;;;;13.12;100.00;96236.75;5060026;28;20024;-76
2022/10/16 04:00:21;;;;;;;2.60;1.73;;;;;;;13.15;100.00;96236.41;5048232;28;20681;-75
2022/10/16 04:02:46;;;;;;;6.15;2.17;;;;;;;13.12;100.00;96235.94;5062184;28;20064;-76
2022/10/16 04:05:12;;;;;;;7.38;2.10;;;;;;;13.12;100.00;96235.94;5061356;28;20028;-76
2022/10/16 04:07:38;;;;;;;8.43;2.15;;;;;;;13.14;100.00;96240.03;5045199;28;20035;-76
2022/10/16 04:10:04;;;;;;;5.20;1.67;;;;;;;13.13;100.00;96233.13;5048195;28;20028;-76
2022/10/16 04:12:29;;;;;;;3.15;1.80;;;;;;;13.14;100.00;96226.03;5064787;28;20115;-76
2022/10/16 04:14:55;;;;;;;5.22;2.17;;;;;;;13.16;100.00;96237.25;5068921;28;20112;-76
2022/10/16 04:17:21;;;;;;;6.15;1.70;;;;;;;13.15;100.00;96239.06;5066729;28;21031;-76
2022/10/16 04:19:46;;;;;;;5.43;1.98;;;;;;;13.17;100.00;96241.50;5067427;28;20036;-76
2022/10/16 04:22:12;;;;;;;6.38;1.63;;;;;;;13.17;100.00;96238.88;5050493;28;20047;-76
2022/10/16 04:24:38;;;;;;;4.07;1.60;;;;;;;13.16;100.00;96242.53;5074548;28;20020;-75
2022/10/16 04:27:04;;;;;;;5.25;1.60;;;;;;;13.13;100.00;96254.25;5082663;28;20032;-76
2022/10/16 04:29:29;;;;;;;4.35;1.60;;;;;;;13.13;100.00;96250.78;5069309;28;20486;-77
2022/10/16 04:31:55;;;;;;;12.02;2.13;;;;;;;13.10;100.00;96253.78;5054504;28;20044;-76
2022/10/16 04:34:22;;;;;;;8.07;2.43;;;;;;;13.06;100.00;96257.75;5067584;28;20035;-76
2022/10/16 04:36:49;;;;;;;8.20;1.48;;;;;;;13.09;100.00;96254.78;5069961;28;20028;-77
2022/10/16 04:39:15;;;;;;;6.93;1.70;;;;;;;13.06;100.00;96252.47;5067831;28;20045;-76
2022/10/16 04:41:41;;;;;;;3.47;1.52;;;;;;;13.03;100.00;96253.66;5043710;28;20033;-77
2022/10/16 04:44:07;;;;;;;2.65;1.73;;;;;;;13.03;100.00;96263.38;5048719;28;20043;-77
2022/10/16 04:46:32;;;;;;;4.90;1.60;;;;;;;13.04;100.00;96270.31;5066546;28;20029;-77
2022/10/16 04:48:58;;;;;;;5.72;1.80;;;;;;;13.13;100.00;96264.81;5065203;28;20040;-77
2022/10/16 04:51:25;;;;;;;6.03;1.70;;;;;;;13.12;100.00;96270.28;5065795;28;20040;-77
2022/10/16 04:53:51;;;;;;;4.07;1.45;;;;;;;13.15;100.00;96273.38;5066226;28;20063;-76
2022/10/16 04:56:18;;;;;;;2.00;1.30;;;;;;;13.23;100.00;96271.69;5064725;28;20028;-77
2022/10/16 04:58:43;;;;;;;8.60;1.73;;;;;;;13.20;100.00;96264.94;5031558;28;20028;-77
2022/10/16 05:01:09;;;;;;;6.90;1.48;;;;;;;13.25;100.00;96262.63;5061878;28;20021;-76
2022/10/16 05:03:35;;;;;;;5.30;1.42;;;;;;;13.24;100.00;96268.88;5061152;28;20380;-77
2022/10/16 05:06:01;;;;;;;5.07;1.80;;;;;;;13.25;100.00;96262.63;5057683;28;20037;-76
2022/10/16 05:08:26;;;;;;;3.88;1.38;;;;;;;13.24;100.00;96263.59;5057690;28;20029;-77
2022/10/16 05:10:52;;;;;;;2.95;1.52;;;;;;;13.29;100.00;96263.91;5045003;28;20040;-77
2022/10/16 05:13:18;;;;;;;6.13;1.20;;;;;;;13.30;100.00;96265.56;5056362;28;20029;-77
2022/10/16 05:15:48;;;;;;;2.67;1.45;;;;;;;13.31;100.00;96267.22;5042106;28;20036;-76
2022/10/16 05:18:13;;;;;;;4.20;1.60;;;;;;;13.32;100.00;96271.50;5057359;28;20029;-76
2022/10/16 05:20:39;;;;;;;5.03;1.30;;;;;;;13.38;100.00;96272.59;5059071;28;20170;-76
2022/10/16 05:23:05;;;;;;;3.80;1.60;;;;;;;13.32;100.00;96270.69;5044822;28;20040;-77
2022/10/16 05:25:30;;;;;;;2.95;1.30;;;;;;;13.28;100.00;96278.13;5062291;28;20048;-76
2022/10/16 05:27:56;;;;;;;5.13;1.77;;;;;;;13.26;100.00;96280.13;5057805;28;20535;-77
2022/10/16 05:30:22;;;;;;;2.40;1.40;;;;;;;13.24;100.00;96275.97;5062767;28;20032;-77
2022/10/16 05:32:49;;;;;;;3.17;1.30;;;;;;;13.23;100.00;96279.63;5066505;28;20052;-77
2022/10/16 05:35:16;;;;;;;5.40;1.67;;;;;;;13.16;100.00;96287.41;5067325;28;20074;-76
2022/10/16 05:37:41;;;;;;;2.85;1.55;;;;;;;13.15;100.00;96296.34;5048802;28;20029;-77
2022/10/16 05:40:08;;;;;;;3.47;1.65;;;;;;;13.12;100.00;96291.41;5078389;28;20098;-77
2022/10/16 05:42:33;;;;;;;3.15;1.60;;;;;;;13.12;100.00;96294.03;5050403;28;20089;-77
2022/10/16 05:44:59;;;;;;;7.03;1.90;;;;;;;13.09;100.00;96294.38;5065742;28;20042;-76
2022/10/16 05:47:25;;;;;;;3.78;1.73;;;;;;;13.07;100.00;96299.00;5067285;28;20105;-76
2022/10/16 05:49:50;;;;;;;6.82;1.98;;;;;;;13.04;100.00;96297.53;5067426;28;20032;-77
2022/10/16 05:52:16;;;;;;;4.65;1.83;;;;;;;13.03;100.00;96301.16;5066477;28;20059;-77
2022/10/16 05:54:42;;;;;;;3.80;2.15;;;;;;;13.06;100.00;96297.38;5065977;28;20025;-77
2022/10/16 05:57:07;;;;;;;7.00;2.70;;;;;;;13.13;100.00;96300.94;5065964;28;20458;-77
2022/10/16 05:59:33;;;;;;;7.80;2.75;;;;;;;13.13;100.00;96298.31;5066276;28;20066;-77
2022/10/16 06:01:59;;;;;;;6.68;2.55;;;;;;;13.27;100.00;96297.59;5066269;28;20044;-77
2022/10/16 06:04:24;;;;;;;6.15;3.10;;;;;;;13.19;100.00;96305.53;5067294;28;20032;-77
2022/10/16 06:06:50;;;;;;;4.80;2.33;;;;;;;13.24;100.00;96300.59;5068848;28;20032;-76
2022/10/16 06:09:15;;;;;;;9.10;2.92;;;;;;;13.16;100.00;96306.72;5064207;28;20028;-76
2022/10/16 06:11:41;;;;;;;4.68;3.03;;;;;;;13.17;100.00;96310.16;5064913;28;20086;-77
2022/10/16 06:14:08;;;;;;;6.00;2.80;;;;;;;13.19;100.00;96310.81;5060764;28;20021;-77
2022/10/16 06:16:36;;;;;;;5.55;2.88;;;;;;;13.26;100.00;96309.16;5068055;28;20471;-76
2022/10/16 06:19:05;;;;;;;6.00;3.27;;;;;;;13.29;100.00;96319.38;5049890;28;20078;-76
2022/10/16 06:21:31;;;;;;;4.85;3.05;;;;;;;13.33;100.00;96318.03;5068111;28;20055;-76
2022/10/16 06:23:58;;;;;;;8.25;2.67;;;;;;;13.33;100.00;96320.69;5064694;28;20060;-77
2022/10/16 06:26:26;;;;;;;6.28;2.50;;;;;;;13.42;100.00;96329.38;5060933;28;20033;-77
2022/10/16 06:28:53;;;;;;;5.60;2.65;;;;;;;13.36;100.00;96315.03;5044786;28;20059;-77
2022/10/16 06:31:19;;;;;;;4.13;2.47;;;;;;;13.36;100.00;96320.31;5061782;28;20067;-77
2022/10/16 06:33:48;;;;;;;7.28;2.80;;;;;;;13.34;100.00;96318.84;5064041;28;21457;-77
2022/10/16 06:36:15;;;;;;;6.07;2.67;;;;;;;13.41;100.00;96315.34;5064339;28;20017;-77
2022/10/16 06:38:42;;;;;;;4.05;2.40;;;;;;;13.45;100.00;96326.41;5065704;28;20035;-77
2022/10/16 06:41:11;;;;;;;7.13;3.88;;;;;;;13.44;100.00;96322.91;5051625;28;20033;-78
2022/10/16 06:43:37;;;;;;;5.68;2.88;;;;;;;13.52;100.00;96332.63;5068733;28;20129;-77
2022/10/16 06:46:04;;;;;;;6.43;2.60;;;;;;;13.58;100.00;96336.38;5069428;28;20097;-77
2022/10/16 06:48:31;;;;;;;6.13;2.65;;;;;;;13.66;100.00;96350.34;5068254;28;20028;-77
2022/10/16 06:51:09;;;;;;;6.43;2.88;;;;;;;13.74;100.00;96351.28;5067373;28;20091;-77
2022/10/16 06:53:36;;;;;;;7.38;3.08;;;;;;;13.78;100.00;96356.06;5070600;28;20123;-78
2022/10/16 06:56:10;;;;;;;5.45;3.10;;;;;;;13.91;100.00;96355.47;5072147;28;20020;-78
2022/10/16 06:58:36;;;;;;;5.65;2.17;;;;;;;14.04;100.00;96355.69;5067801;28;20037;-78
2022/10/16 07:01:02;;;;;;;5.70;1.95;;;;;;;14.30;100.00;96352.66;5059683;28;20039;-77
2022/10/16 07:03:28;;;;;;;6.72;2.25;;;;;;;14.57;100.00;96355.75;5074387;28;20031;-77
2022/10/16 07:05:53;;;;;;;4.47;2.08;;;;;;;15.06;100.00;96347.25;5073637;28;20041;-77
2022/10/16 07:08:19;;;;;;;4.38;2.10;;;;;;;15.30;100.00;96336.34;5061754;28;20105;-78
2022/10/16 07:10:45;;;;;;;9.27;2.50;;;;;;;15.10;100.00;96345.88;5070434;28;20040;-77
2022/10/16 07:13:13;;;;;;;5.13;1.80;;;;;;;15.02;100.00;96338.88;5069215;28;20032;-78
2022/10/16 07:15:39;;;;;;;3.83;1.90;;;;;;;14.87;100.00;96356.56;5051887;28;20031;-78
2022/10/16 07:18:04;;;;;;;4.38;1.70;;;;;;;14.86;100.00;96352.28;5068567;28;20139;-78
2022/10/16 07:20:30;;;;;;;5.32;2.05;;;;;;;14.93;100.00;96349.75;5054832;28;20041;-77
2022/10/16 07:22:56;;;;;;;3.97;2.03;;;;;;;15.04;100.00;96349.25;5037318;28;20028;-78
2022/10/16 07:25:21;;;;;;;4.75;1.88;;;;;;;15.38;100.00;96346.00;5069035;28;20735;-78
2022/10/16 07:27:47;;;;;;;4.82;1.70;;;;;;;15.52;100.00;96353.09;5061874;28;20028;-77
2022/10/16 07:30:13;;;;;;;7.05;2.20;;;;;;;15.43;100.00;96358.72;5068762;28;20081;-78
2022/10/16 07:32:38;;;;;;;3.45;2.00;;;;;;;15.41;100.00;96366.84;5069128;28;20074;-78
2022/10/16 07:35:05;;;;;;;4.13;1.92;;;;;;;15.40;100.00;96365.19;5068498;28;20466;-77
2022/10/16 07:37:30;;;;;;;4.88;1.80;;;;;;;15.47;100.00;96366.09;5056949;28;20032;-77
2022/10/16 07:39:57;;;;;;;8.32;2.00;;;;;;;15.46;100.00;96368.91;5067323;28;20036;-77
2022/10/16 07:42:23;;;;;;;3.63;2.00;;;;;;;15.57;100.00;96371.09;5049224;28;20063;-77
2022/10/16 07:44:48;;;;;;;4.78;1.85;;;;;;;15.65;100.00;96370.97;5067050;28;20036;-78
2022/10/16 07:47:14;;;;;;;4.63;1.60;;;;;;;15.75;100.00;96379.47;5052588;28;20043;-78
2022/10/16 07:49:40;;;;;;;4.22;1.65;;;;;;;15.87;100.00;96373.69;5069112;28;20039;-78
2022/10/16 07:52:05;;;;;;;4.30;1.80;;;;;;;15.95;100.00;96379.69;5069895;28;20047;-77
2022/10/16 07:54:31;;;;;;;4.13;1.70;;;;;;;15.99;100.00;96375.63;5048727;28;20134;-77
2022/10/16 07:56:56;;;;;;;6.45;1.70;;;;;;;16.00;100.00;96389.75;5065667;28;20052;-78
2022/10/16 07:59:22;;;;;;;5.35;1.70;;;;;;;16.13;100.00;96387.22;5051742;28;20028;-78
2022/10/16 08:01:49;;;;;;;4.57;1.75;;;;;;;16.21;100.00;96391.56;5056074;28;20047;-78
2022/10/16 08:04:15;;;;;;;3.88;1.67;;;;;;;16.34;100.00;96389.03;5040927;28;20041;-78
2022/10/16 08:06:41;;;;;;;5.53;1.70;;;;;;;16.60;100.00;96395.53;5056263;28;20058;-77
2022/10/16 08:09:08;;;;;;;5.90;1.80;;;;;;;16.68;100.00;96398.06;5067176;28;20407;-77
2022/10/16 08:11:34;;;;;;;5.75;2.20;;;;;;;16.72;100.00;96391.34;5067020;28;20024;-76
2022/10/16 08:14:00;;;;;;;4.32;2.00;;;;;;;16.64;100.00;96408.25;5067459;28;20029;-77
2022/10/16 08:16:26;;;;;;;4.43;1.73;;;;;;;16.57;100.00;96403.91;5065982;28;20093;-77
2022/10/16 08:18:51;;;;;;;4.05;1.92;;;;;;;16.60;100.00;96409.66;5067084;28;20119;-78
2022/10/16 08:21:20;;;;;;;4.65;1.45;;;;;;;16.46;100.00;96413.19;5066814;28;20111;-78
2022/10/16 08:23:46;;;;;;;7.35;1.85;;;;;;;16.29;100.00;96423.25;5063203;28;20041;-77
2022/10/16 08:26:12;;;;;;;4.75;1.52;;;;;;;16.40;100.00;96419.31;5067565;28;20032;-77
2022/10/16 08:28:38;;;;;;;2.35;1.45;;;;;;;16.28;100.00;96424.28;5066539;28;20083;-78
2022/10/16 08:31:14;;;;;;;6.43;1.90;;;;;;;16.31;100.00;96431.06;5065594;28;20028;-75
2022/10/16 08:33:42;;;;;;;3.55;1.85;;;;;;;16.39;100.00;96439.69;5064077;28;20033;-77
2022/10/16 08:36:10;;;;;;;6.60;1.90;;;;;;;16.45;100.00;96438.13;5065816;28;20146;-77
2022/10/16 08:38:37;;;;;;;3.58;1.67;;;;;;;16.54;100.00;96433.50;5064062;28;20107;-74
2022/10/16 08:41:37;;;;;;;5.25;2.17;;;;;;;16.35;100.00;96438.44;5048424;28;20032;-76
2022/10/16 08:44:28;;;;;;;3.42;1.63;;;;;;;16.40;100.00;96430.72;5029930;28;20033;-77
2022/10/16 08:47:11;;;;;;;4.45;2.15;;;;;;;16.42;100.00;96433.19;5051578;28;20050;-78
2022/10/16 08:49:38;;;;;;;;;;;;;;;16.41;100.00;96431.56;5055053;28;20048;-77
2022/10/16 08:52:10;;;;;;;5.40;2.30;;;;;;;16.39;100.00;96425.59;5049289;28;19912;-77
2022/10/16 08:54:41;;;;;;;3.78;1.67;;;;;;;16.37;100.00;96430.28;5051241;28;20033;-77
2022/10/16 08:57:14;;;;;;;3.92;1.45;;;;;;;16.52;100.00;96432.84;5067493;28;20032;-77
2022/10/16 08:59:39;;;;;;;4.07;1.70;;;;;;;16.59;100.00;96423.94;5062022;28;20043;-77
2022/10/16 09:02:44;;;;;;;9.65;2.28;;;;;;;16.64;100.00;96426.84;5051979;28;20028;-77
2022/10/16 09:05:19;;;;;;;5.40;2.45;;;;;;;16.73;100.00;96431.00;5051525;28;20033;-77
2022/10/16 09:08:08;;;;;;;5.65;2.40;;;;;;;16.80;100.00;96428.44;5071190;28;20040;-77
2022/10/16 09:10:34;;;;;;;5.60;2.50;;;;;;;16.95;100.00;96433.63;5052017;28;20487;-77
2022/10/16 09:13:10;;;;;;;4.95;2.20;;;;;;;17.22;100.00;96428.47;5069861;28;20028;-77
2022/10/16 09:15:54;;;;;;;6.43;2.40;;;;;;;17.45;100.00;96429.00;5069163;28;20442;-76
2022/10/16 09:18:24;;;;;;;7.15;2.33;;;;;;;17.88;100.00;96423.47;5067859;28;20024;-77
2022/10/16 09:21:11;;;;;;;3.97;1.40;;;;;;;17.77;100.00;96429.34;5069016;28;20123;-77
2022/10/16 09:23:37;;;;;;;6.30;2.40;;;;;;;17.71;100.00;96428.31;5062824;28;20036;-77
2022/10/16 09:26:09;;;;;;;2.47;1.42;;;;;;;17.82;100.00;96440.25;5070158;28;20111;-77
2022/10/16 09:28:35;;;;;;;4.85;1.65;;;;;;;18.00;100.00;96442.31;5057557;28;20051;-77
2022/10/16 09:31:01;;;;;;;3.85;1.45;;;;;;;17.98;100.00;96437.22;5066056;28;20029;-77
2022/10/16 09:33:35;;;;;;;4.28;1.52;;;;;;;17.87;100.00;96446.59;5066329;28;20099;-77
2022/10/16 09:36:03;;;;;;;9.35;2.38;;;;;;;17.87;100.00;96451.09;5062258;28;20037;-76
2022/10/16 09:38:36;;;;;;;3.97;0.98;;;;;;;17.79;100.00;96441.44;5062781;28;20067;-77
2022/10/16 09:41:22;;;;;;;4.65;1.40;;;;;;;17.80;100.00;96445.75;5071322;28;20028;-77
2022/10/16 09:44:01;;;;;;;4.00;1.75;;;;;;;17.71;100.00;96438.13;5068322;28;20119;-76
2022/10/16 09:46:35;;;;;;;8.68;1.58;;;;;;;17.70;100.00;96452.44;5033809;28;20112;-78
2022/10/16 09:49:35;;;;;;;3.85;1.58;;;;;;;17.86;100.00;96462.75;5065962;28;20033;-77
2022/10/16 09:52:05;;;;;;;3.42;1.33;;;;;;;17.87;100.00;96467.03;5051550;28;20127;-77
2022/10/16 09:54:31;;;;;;;3.33;1.70;;;;;;;17.90;100.00;96454.16;5067282;28;20040;-77
2022/10/16 09:57:07;;;;;;;2.47;1.42;;;;;;;17.95;100.00;96461.56;5052750;28;20033;-78
2022/10/16 09:59:33;;;;;;;5.15;1.38;;;;;;;18.07;100.00;96456.47;5053437;28;20093;-77
2022/10/16 10:02:13;;;;;;;4.18;1.13;;;;;;;18.18;100.00;96453.25;5071906;28;20029;-78
2022/10/16 10:04:51;;;;;;;2.25;1.10;;;;;;;18.31;100.00;96455.94;5075288;28;20038;-77
2022/10/16 10:07:23;;;;;;;6.15;1.33;;;;;;;18.40;100.00;96440.56;5083169;28;20020;-77
2022/10/16 10:09:49;;;;;;;4.55;1.48;;;;;;;18.61;100.00;96442.22;5081797;28;20044;-77
2022/10/16 10:12:26;;;;;;;7.00;1.55;;;;;;;18.91;100.00;96439.16;5061354;28;20036;-77
2022/10/16 10:14:55;;;;;;;3.25;1.30;;;;;;;19.10;100.00;96440.19;5070956;28;20042;-77
2022/10/16 10:17:24;;;;;;;3.03;1.67;;;;;;;19.00;100.00;96444.06;5070367;28;20067;-76
2022/10/16 10:20:00;;;;;;;4.18;1.48;;;;;;;19.00;100.00;96441.41;5067378;28;20432;-78
2022/10/16 10:22:40;;;;;;;6.45;1.77;;;;;;;18.90;100.00;96443.69;5053744;28;20803;-78
2022/10/16 10:25:09;;;;;;;4.88;1.75;;;;;;;18.97;100.00;96451.66;5053691;28;20385;-78
2022/10/16 10:27:52;;;;;;;3.90;1.90;;;;;;;19.22;100.00;96452.66;5061601;28;20028;-77
2022/10/16 10:31:02;;;;;;;1.88;0.90;;;;;;;19.50;100.00;96448.91;5065303;28;20082;-77
2022/10/16 10:33:47;;;;;;;2.15;1.23;;;;;;;19.49;100.00;96442.75;5038574;28;20037;-78
2022/10/16 10:36:28;;;;;;;3.20;1.05;;;;;;;19.48;100.00;96438.47;5054439;28;21556;-78
2022/10/16 10:39:00;;;;;;;5.40;1.20;;;;;;;19.60;100.00;96432.47;5053391;28;20059;-77
2022/10/16 10:41:48;;;;;;;2.00;1.00;;;;;;;19.61;100.00;96440.22;5081795;28;20044;-76
2022/10/16 10:44:45;;;;;;;4.47;1.20;;;;;;;21.45;100.00;96427.66;5080911;28;20075;-77
2022/10/16 10:47:23;;;;;;;5.07;1.10;;;;;;;21.45;100.00;96425.00;5071294;28;20067;-77
2022/10/16 10:49:55;;;;;;;3.65;1.00;;;;;;;21.88;100.00;96416.84;5054646;28;20077;-78
2022/10/16 10:53:02;;;;;;;9.00;2.38;;;;;;;22.65;100.00;96418.06;5071695;28;20032;-78
2022/10/16 10:55:47;;;;;;;8.32;1.27;;;;;;;22.90;100.00;96425.88;5055321;28;20438;-77
2022/10/16 10:58:42;;;;;;;3.47;1.10;;;;;;;22.43;100.00;96431.16;5064538;28;20021;-77
2022/10/16 11:01:21;;;;;;;3.40;1.08;;;;;;;22.63;100.00;96425.50;5052719;28;20036;-77
2022/10/16 11:04:21;;;;;;;5.82;0.95;;;;;;;23.03;100.00;96425.69;5061584;28;20025;-77
2022/10/16 11:06:52;;;;;;;5.20;1.30;;;;;;;22.40;100.00;96435.13;5058505;28;20075;-77
2022/10/16 11:09:28;;;;;;;2.45;1.23;;;;;;;21.88;100.00;96434.78;5051605;28;20033;-77
2022/10/16 11:12:01;;;;;;;3.58;1.40;;;;;;;21.37;100.00;96438.69;5066314;28;20036;-77
2022/10/16 11:14:31;;;;;;;;;;;;;;;21.64;100.00;96436.53;5070175;28;20063;-77
2022/10/16 11:17:04;;;;;;;4.15;1.17;;;;;;;22.75;100.00;96443.25;5068173;28;20394;-76
2022/10/16 11:19:35;;;;;;;;;;;;;;;23.31;100.00;96441.09;5066366;28;20036;-77
2022/10/16 11:22:17;;;;;;;3.80;1.38;;;;;;;23.62;100.00;96439.88;5058136;28;19912;-77
2022/10/16 11:24:53;;;;;;;2.70;1.20;;;;;;;23.97;100.00;96438.97;5058126;28;20036;-78
2022/10/16 11:27:58;;;;;;;2.83;1.42;;;;;;;23.97;100.00;96438.97;5062688;28;20767;-77
2022/10/16 11:30:27;;;;;;;3.55;1.33;;;;;;;23.99;100.00;96431.50;5056705;28;20491;-77
2022/10/16 11:33:16;;;;;;;1.77;0.73;;;;;;;24.04;100.00;96426.22;5067041;28;20036;-77
2022/10/16 11:36:03;;;;;;;3.03;0.80;;;;;;;24.09;100.00;96433.56;5060727;28;20067;-77
2022/10/16 11:38:33;;;;;;;2.88;0.90;;;;;;;24.67;100.00;96437.84;5054816;28;20032;-77
2022/10/16 11:41:11;;;;;;;4.82;1.23;;;;;;;24.27;100.00;96433.34;5047292;28;20120;-76